Time;durP1;ratioP1;P1;durP2;ratioP2;P2;SDS_P1;SDS_P2;PMS_P1;PMS_P2;Temp;Humidity;BMP_temperature;BMP_pressure;BME280_temperature;BME280_humidity;BME280_pressure;Samples;Min_cycle;Max_cycle;Signal;HPM_P1;HPM_P2
2021/09/02 00:00:47;;;;;;;19.77;12.57;;;12.70;99.90;;;;;;5069211;28;20441;-58
2021/09/02 00:03:12;;;;;;;17.60;12.10;;;12.70;99.90;;;;;;5068042;28;20415;-58
2021/09/02 00:05:38;;;;;;;21.80;12.35;;;12.70;99.90;;;;;;5069368;28;20396;-58
2021/09/02 00:08:04;;;;;;;18.58;11.20;;;12.80;99.90;;;;;;5068264;28;20401;-58
2021/09/02 00:10:30;;;;;;;17.45;11.30;;;12.80;99.90;;;;;;5069013;28;20441;-59
2021/09/02 00:12:56;;;;;;;20.37;12.47;;;12.80;99.90;;;;;;5072130;28;20380;-58
2021/09/02 00:15:22;;;;;;;19.80;13.05;;;12.70;99.90;;;;;;5072751;28;20478;-58
2021/09/02 00:17:47;;;;;;;17.20;11.50;;;12.60;99.90;;;;;;5072543;28;20757;-58
2021/09/02 00:20:13;;;;;;;17.67;11.05;;;12.60;99.90;;;;;;5072174;28;20380;-58
2021/09/02 00:22:39;;;;;;;19.98;11.40;;;12.50;99.90;;;;;;5072447;28;20418;-58
2021/09/02 00:25:06;;;;;;;16.17;11.30;;;12.50;99.90;;;;;;5071651;28;20796;-58
2021/09/02 00:27:32;;;;;;;22.17;12.83;;;12.40;99.90;;;;;;5072766;28;20384;-58
2021/09/02 00:29:57;;;;;;;20.27;12.90;;;12.50;99.90;;;;;;5071764;28;20843;-58
2021/09/02 00:32:23;;;;;;;20.37;12.83;;;12.50;99.90;;;;;;5072223;28;20413;-59
2021/09/02 00:34:48;;;;;;;24.23;12.85;;;12.50;99.90;;;;;;5072266;28;20375;-59
2021/09/02 00:37:14;;;;;;;20.90;12.97;;;12.40;99.90;;;;;;5071989;28;20871;-59
2021/09/02 00:39:45;;;;;;;20.48;13.90;;;12.30;99.90;;;;;;5072086;28;20376;-59
2021/09/02 00:42:10;;;;;;;19.80;12.48;;;12.20;99.90;;;;;;5070062;28;20979;-59
2021/09/02 00:44:38;;;;;;;17.98;12.98;;;12.10;99.90;;;;;;5072174;28;20387;-59
2021/09/02 00:47:05;;;;;;;18.60;11.77;;;12.20;99.90;;;;;;5071263;28;20388;-59
2021/09/02 00:49:32;;;;;;;21.25;12.70;;;12.30;99.90;;;;;;5071778;28;20387;-59
2021/09/02 00:52:00;;;;;;;17.23;11.00;;;12.20;99.90;;;;;;5071345;28;20475;-58
2021/09/02 00:54:25;;;;;;;19.40;11.38;;;12.30;99.90;;;;;;5071873;28;20391;-59
2021/09/02 00:56:51;;;;;;;16.60;10.60;;;12.30;99.90;;;;;;5071764;28;20388;-58
2021/09/02 00:59:17;;;;;;;17.25;11.10;;;11.40;99.90;;;;;;5070322;28;20429;-58
2021/09/02 01:01:43;;;;;;;18.63;11.07;;;12.20;99.90;;;;;;5071711;28;20730;-58
2021/09/02 01:04:09;;;;;;;16.00;10.93;;;12.20;99.90;;;;;;5070681;28;20388;-59
2021/09/02 01:06:36;;;;;;;16.80;9.95;;;12.20;99.90;;;;;;5071352;28;20388;-59
2021/09/02 01:09:02;;;;;;;15.70;10.20;;;12.10;99.90;;;;;;5070602;28;20376;-58
2021/09/02 01:11:27;;;;;;;16.70;10.52;;;12.10;99.90;;;;;;5071497;28;20437;-59
2021/09/02 01:13:53;;;;;;;15.13;9.65;;;12.20;99.90;;;;;;5071047;28;20395;-59
2021/09/02 01:16:18;;;;;;;16.50;10.90;;;12.20;99.90;;;;;;5070975;28;20403;-58
2021/09/02 01:18:44;;;;;;;18.23;10.70;;;12.10;99.90;;;;;;5071662;28;20380;-59
2021/09/02 01:21:10;;;;;;;17.08;10.80;;;12.00;99.90;;;;;;5070539;28;20372;-63
2021/09/02 01:23:39;;;;;;;19.30;11.70;;;11.90;99.90;;;;;;5070699;28;20411;-59
2021/09/02 01:26:18;;;;;;;17.38;11.27;;;12.00;99.90;;;;;;5070416;28;20873;-59
2021/09/02 01:28:44;;;;;;;19.23;12.80;;;12.00;99.90;;;;;;5071497;28;20408;-58
2021/09/02 01:31:20;;;;;;;17.70;10.88;;;12.00;99.90;;;;;;5070240;28;20820;-62
2021/09/02 01:33:50;;;;;;;17.23;10.48;;;11.90;99.90;;;;;;5071034;28;20930;-59
2021/09/02 01:36:17;;;;;;;16.83;10.95;;;11.80;99.90;;;;;;5070352;28;20413;-58
2021/09/02 01:38:44;;;;;;;17.08;10.57;;;11.70;99.90;;;;;;5070934;28;20418;-58
2021/09/02 01:41:10;;;;;;;17.02;11.32;;;11.70;99.90;;;;;;5070310;28;20417;-58
2021/09/02 01:43:36;;;;;;;18.85;11.90;;;11.60;99.90;;;;;;5070754;28;20407;-58
2021/09/02 01:46:02;;;;;;;18.67;11.27;;;11.60;99.90;;;;;;5068866;28;20403;-58
2021/09/02 01:48:32;;;;;;;18.98;11.85;;;11.60;99.90;;;;;;5071314;28;20477;-58
2021/09/02 01:50:58;;;;;;;14.95;10.55;;;11.60;99.90;;;;;;5070110;28;20399;-58
2021/09/02 01:53:24;;;;;;;17.08;11.43;;;11.50;99.90;;;;;;5069498;28;20919;-58
2021/09/02 01:55:50;;;;;;;17.33;11.07;;;11.40;99.90;;;;;;5069484;28;20376;-58
2021/09/02 01:58:16;;;;;;;18.95;12.40;;;11.50;99.90;;;;;;5069957;28;20403;-58
2021/09/02 02:00:42;;;;;;;20.10;12.55;;;11.60;99.90;;;;;;5069412;28;20430;-58
2021/09/02 02:03:08;;;;;;;20.25;12.90;;;11.50;99.90;;;;;;5069836;28;20687;-58
2021/09/02 02:05:34;;;;;;;19.33;12.40;;;11.50;99.90;;;;;;5070510;28;20820;-58
2021/09/02 02:08:01;;;;;;;19.92;12.32;;;11.40;99.90;;;;;;5070073;28;20717;-58
2021/09/02 02:10:28;;;;;;;19.23;12.00;;;11.30;99.90;;;;;;5070608;28;20384;-58
2021/09/02 02:12:59;;;;;;;18.85;11.90;;;11.30;99.90;;;;;;5070072;28;20387;-58
2021/09/02 02:15:25;;;;;;;19.33;12.02;;;11.40;99.90;;;;;;5070657;28;20406;-58
2021/09/02 02:17:51;;;;;;;20.33;13.00;;;11.30;99.90;;;;;;5070182;28;20418;-57
2021/09/02 02:20:17;;;;;;;20.00;12.00;;;11.30;99.90;;;;;;5069888;28;20392;-58
2021/09/02 02:22:43;;;;;;;19.60;12.02;;;11.30;99.90;;;;;;5070359;28;20402;-58
2021/09/02 02:25:11;;;;;;;16.63;10.68;;;11.30;99.90;;;;;;5069293;28;20383;-58
2021/09/02 02:27:38;;;;;;;17.17;10.40;;;11.30;99.90;;;;;;5070420;28;20919;-59
2021/09/02 02:30:04;;;;;;;20.17;12.38;;;11.30;99.90;;;;;;5069018;28;20376;-58
2021/09/02 02:32:30;;;;;;;17.67;11.18;;;11.20;99.90;;;;;;5069559;28;20406;-58
2021/09/02 02:34:56;;;;;;;18.08;11.27;;;11.20;99.90;;;;;;5068276;28;20520;-58
2021/09/02 02:37:22;;;;;;;21.73;11.20;;;11.20;99.90;;;;;;5070071;28;20425;-58
2021/09/02 02:39:48;;;;;;;16.20;10.77;;;11.20;99.90;;;;;;5069612;28;20413;-58
2021/09/02 02:42:14;;;;;;;17.98;11.13;;;11.10;99.90;;;;;;5068982;28;20653;-58
2021/09/02 02:44:40;;;;;;;17.13;10.70;;;11.00;99.90;;;;;;5069824;28;20389;-58
2021/09/02 02:47:07;;;;;;;19.67;11.25;;;10.90;99.90;;;;;;5068599;28;20394;-58
2021/09/02 02:49:33;;;;;;;18.90;11.50;;;11.00;99.90;;;;;;5069666;28;20388;-58
2021/09/02 02:51:58;;;;;;;18.48;12.10;;;11.00;99.90;;;;;;5069177;28;20450;-58
2021/09/02 02:54:24;;;;;;;18.13;11.83;;;11.00;99.90;;;;;;5069840;28;20865;-58
2021/09/02 02:56:50;;;;;;;19.35;11.80;;;10.90;99.90;;;;;;5069387;28;20782;-58
2021/09/02 02:59:16;;;;;;;21.35;12.50;;;10.90;99.90;;;;;;5068976;28;20375;-58
2021/09/02 03:01:42;;;;;;;20.27;11.87;;;10.90;99.90;;;;;;5069601;28;20376;-58
2021/09/02 03:04:07;;;;;;;17.90;11.27;;;10.90;99.90;;;;;;5068657;28;20422;-57
2021/09/02 03:06:33;;;;;;;17.33;10.73;;;10.90;99.90;;;;;;5069301;28;20398;-57
2021/09/02 03:09:01;;;;;;;16.80;10.70;;;10.80;99.90;;;;;;5068445;28;20379;-58
2021/09/02 03:11:28;;;;;;;20.90;12.65;;;10.80;99.90;;;;;;5069281;28;20877;-57
2021/09/02 03:13:53;;;;;;;19.15;11.80;;;10.80;99.90;;;;;;5068981;28;20380;-57
2021/09/02 03:16:19;;;;;;;19.80;11.60;;;10.90;99.90;;;;;;5068822;28;20873;-58
2021/09/02 03:18:45;;;;;;;17.37;11.17;;;10.90;99.90;;;;;;5068729;28;20798;-58
2021/09/02 03:21:10;;;;;;;16.77;10.23;;;10.90;99.90;;;;;;5068753;28;20371;-58
2021/09/02 03:23:36;;;;;;;18.55;11.60;;;10.90;99.90;;;;;;5067987;28;20992;-57
2021/09/02 03:26:02;;;;;;;18.25;11.35;;;10.90;99.90;;;;;;5068396;28;20383;-58
2021/09/02 03:28:27;;;;;;;19.33;12.30;;;10.90;99.90;;;;;;5069769;28;20707;-58
2021/09/02 03:30:53;;;;;;;20.42;13.20;;;10.80;99.90;;;;;;5068870;28;20372;-58
2021/09/02 03:33:19;;;;;;;23.38;13.35;;;10.80;99.90;;;;;;5068493;28;20418;-58
2021/09/02 03:35:51;;;;;;;24.07;14.00;;;10.80;99.90;;;;;;5069627;28;20375;-58
2021/09/02 03:38:16;;;;;;;23.33;13.02;;;10.80;99.90;;;;;;5068501;28;20415;-58
2021/09/02 03:40:42;;;;;;;22.85;13.43;;;10.70;99.90;;;;;;5068984;28;20852;-58
2021/09/02 03:43:08;;;;;;;17.50;11.52;;;10.80;99.90;;;;;;5050437;28;20499;-58
2021/09/02 03:45:33;;;;;;;21.80;11.60;;;10.70;99.90;;;;;;5070568;28;20390;-58
2021/09/02 03:47:59;;;;;;;19.80;12.25;;;10.70;99.90;;;;;;5072118;28;20384;-58
2021/09/02 03:50:25;;;;;;;19.73;11.43;;;10.70;99.90;;;;;;5073607;28;20383;-58
2021/09/02 03:52:51;;;;;;;19.10;11.77;;;10.70;99.90;;;;;;5072863;28;20387;-58
2021/09/02 03:55:16;;;;;;;21.13;13.90;;;10.70;99.90;;;;;;5071926;28;21182;-57
2021/09/02 03:57:42;;;;;;;24.00;14.60;;;10.70;99.90;;;;;;5072687;28;20718;-57
2021/09/02 04:00:10;;;;;;;21.93;13.00;;;10.80;99.90;;;;;;5072219;28;20470;-57
2021/09/02 04:02:36;;;;;;;19.42;11.82;;;10.70;99.90;;;;;;5072327;28;20407;-57
2021/09/02 04:05:04;;;;;;;20.23;11.77;;;10.80;99.90;;;;;;5071977;28;20534;-57
2021/09/02 04:07:29;;;;;;;18.15;11.20;;;10.60;99.90;;;;;;5073306;28;20804;-57
2021/09/02 04:09:55;;;;;;;21.47;13.40;;;10.50;99.90;;;;;;5072294;28;20419;-58
2021/09/02 04:12:21;;;;;;;21.25;13.32;;;10.60;99.90;;;;;;5072579;28;20706;-57
2021/09/02 04:14:46;;;;;;;22.10;13.47;;;10.60;99.90;;;;;;5072475;28;20749;-56
2021/09/02 04:17:12;;;;;;;22.37;13.47;;;10.60;99.90;;;;;;5071844;28;20421;-57
2021/09/02 04:19:37;;;;;;;24.25;13.93;;;10.70;99.90;;;;;;5073482;28;20379;-57
2021/09/02 04:22:03;;;;;;;24.47;13.87;;;10.70;99.90;;;;;;5071652;28;20685;-57
2021/09/02 04:24:29;;;;;;;22.63;13.00;;;10.60;99.90;;;;;;5072464;28;20387;-57
2021/09/02 04:26:55;;;;;;;21.20;12.93;;;10.60;99.90;;;;;;5072387;28;20737;-57
2021/09/02 04:29:21;;;;;;;24.20;13.75;;;10.40;99.90;;;;;;5070159;28;20384;-57
2021/09/02 04:31:47;;;;;;;25.60;14.70;;;10.40;99.90;;;;;;5072295;28;20426;-57
2021/09/02 04:34:13;;;;;;;21.92;12.63;;;10.40;99.90;;;;;;5071541;28;20774;-57
2021/09/02 04:36:39;;;;;;;20.43;13.03;;;10.40;99.90;;;;;;5072303;28;20818;-57
2021/09/02 04:39:05;;;;;;;20.38;12.18;;;10.40;99.90;;;;;;5071045;28;20463;-57
2021/09/02 04:41:31;;;;;;;20.48;13.10;;;10.40;99.90;;;;;;5072409;28;20399;-57
2021/09/02 04:43:57;;;;;;;20.50;13.20;;;10.40;99.90;;;;;;5071327;28;20412;-57
2021/09/02 04:46:23;;;;;;;23.08;13.52;;;10.50;99.90;;;;;;5071502;28;20387;-57
2021/09/02 04:48:48;;;;;;;22.30;14.20;;;10.60;99.90;;;;;;5071997;28;21033;-57
2021/09/02 04:51:15;;;;;;;26.80;14.70;;;10.50;99.90;;;;;;5071208;28;20979;-57
2021/09/02 04:53:43;;;;;;;26.10;14.90;;;10.50;99.90;;;;;;5071912;28;20491;-58
2021/09/02 04:56:09;;;;;;;22.13;13.80;;;10.60;99.90;;;;;;5070747;28;20960;-57
2021/09/02 04:58:35;;;;;;;21.17;12.90;;;10.60;99.90;;;;;;5070248;28;20403;-57
2021/09/02 05:01:01;;;;;;;22.47;12.90;;;10.70;99.90;;;;;;5070716;28;20380;-58
2021/09/02 05:03:26;;;;;;;20.83;13.43;;;10.70;99.90;;;;;;5071615;28;20399;-58
2021/09/02 05:05:52;;;;;;;19.53;12.17;;;10.70;99.90;;;;;;5071680;28;20394;-58
2021/09/02 05:08:18;;;;;;;23.33;12.90;;;10.70;99.90;;;;;;5071058;28;20387;-58
2021/09/02 05:10:43;;;;;;;18.50;11.90;;;10.90;99.90;;;;;;5071742;28;20404;-58
2021/09/02 05:13:09;;;;;;;20.95;13.38;;;10.80;99.90;;;;;;5069147;28;20813;-57
2021/09/02 05:15:35;;;;;;;20.40;12.53;;;10.90;99.90;;;;;;5071305;28;20379;-57
2021/09/02 05:18:00;;;;;;;22.67;13.27;;;11.00;99.90;;;;;;5070792;28;20427;-57
2021/09/02 05:20:26;;;;;;;24.77;15.70;;;11.00;99.90;;;;;;5071430;28;20390;-58
2021/09/02 05:22:52;;;;;;;26.65;16.27;;;11.00;99.90;;;;;;5071136;28;20469;-58
2021/09/02 05:25:18;;;;;;;26.17;16.27;;;11.10;99.90;;;;;;5069995;28;20453;-58
2021/09/02 05:27:44;;;;;;;23.75;15.75;;;11.20;99.90;;;;;;5071184;28;20380;-58
2021/09/02 05:30:12;;;;;;;24.23;15.23;;;11.30;99.90;;;;;;5070249;28;20387;-58
2021/09/02 05:32:39;;;;;;;20.60;13.52;;;11.40;99.90;;;;;;5070850;28;20746;-58
2021/09/02 05:35:05;;;;;;;31.42;19.08;;;11.50;99.90;;;;;;5070314;28;20752;-58
2021/09/02 05:37:31;;;;;;;35.23;19.13;;;11.70;99.90;;;;;;5069771;28;20800;-57
2021/09/02 05:39:57;;;;;;;28.35;16.00;;;11.90;99.90;;;;;;5070738;28;20483;-57
2021/09/02 05:42:23;;;;;;;28.75;16.60;;;12.00;99.90;;;;;;5070580;28;20400;-57
2021/09/02 05:44:48;;;;;;;35.47;18.83;;;12.10;99.90;;;;;;5070948;28;20475;-57
2021/09/02 05:47:14;;;;;;;34.97;20.30;;;12.20;99.90;;;;;;5070389;28;20785;-58
2021/09/02 05:49:40;;;;;;;33.60;18.50;;;12.10;99.90;;;;;;5061081;28;20407;-57
2021/09/02 05:52:06;;;;;;;28.17;17.63;;;12.30;99.90;;;;;;5069864;28;20384;-57
2021/09/02 05:54:31;;;;;;;25.63;15.18;;;12.40;99.90;;;;;;5069438;28;20413;-58
2021/09/02 05:56:57;;;;;;;24.10;13.43;;;12.50;99.90;;;;;;5070091;28;20371;-57
2021/09/02 05:59:23;;;;;;;24.30;14.07;;;12.70;99.90;;;;;;5069622;28;20384;-57
2021/09/02 06:01:48;;;;;;;19.40;12.10;;;13.00;99.90;;;;;;5070335;28;20383;-58
2021/09/02 06:04:14;;;;;;;21.15;12.02;;;13.40;99.90;;;;;;5068912;28;21007;-58
2021/09/02 06:06:40;;;;;;;16.93;10.47;;;14.70;99.90;;;;;;5070308;28;20388;-58
2021/09/02 06:09:07;;;;;;;18.53;10.20;;;16.40;99.90;;;;;;5068749;28;20382;-58
2021/09/02 06:11:33;;;;;;;15.23;10.52;;;18.30;99.90;;;;;;5070195;28;20391;-57
2021/09/02 06:13:59;;;;;;;16.67;11.20;;;20.30;99.90;;;;;;5069495;28;20870;-58
2021/09/02 06:16:25;;;;;;;14.87;11.00;;;22.10;99.90;;;;;;5069713;28;20443;-58
2021/09/02 06:18:52;;;;;;;15.80;10.77;;;22.80;99.90;;;;;;5070047;28;20419;-58
2021/09/02 06:21:18;;;;;;;16.98;11.82;;;22.80;99.90;;;;;;5069145;28;20485;-59
2021/09/02 06:23:43;;;;;;;18.30;14.33;;;23.00;99.90;;;;;;5069796;28;20407;-60
2021/09/02 06:26:09;;;;;;;19.90;17.83;;;23.70;99.90;;;;;;5068810;28;20395;-59
2021/09/02 06:28:35;;;;;;;16.90;13.53;;;24.20;99.90;;;;;;5069630;28;20386;-59
2021/09/02 06:31:01;;;;;;;20.47;18.57;;;24.10;99.90;;;;;;5068850;28;20462;-60
2021/09/02 06:33:26;;;;;;;20.65;18.65;;;23.90;99.90;;;;;;5069159;28;20384;-60
2021/09/02 06:35:53;;;;;;;19.58;17.58;;;24.50;98.90;;;;;;5069575;28;20386;-59
2021/09/02 06:38:18;;;;;;;20.85;18.27;;;24.00;99.40;;;;;;5068587;28;20376;-60
2021/09/02 06:40:44;;;;;;;20.43;18.33;;;23.80;99.50;;;;;;5069463;28;20486;-60
2021/09/02 06:43:10;;;;;;;21.10;18.60;;;24.00;99.90;;;;;;5068837;28;20431;-60
2021/09/02 06:45:36;;;;;;;20.80;18.70;;;25.00;98.70;;;;;;5068242;28;20403;-60
2021/09/02 06:48:01;;;;;;;21.02;18.92;;;25.40;97.10;;;;;;5068308;28;20422;-59
2021/09/02 06:50:27;;;;;;;20.80;18.80;;;25.70;96.40;;;;;;5069543;28;20850;-58
2021/09/02 06:52:53;;;;;;;19.63;17.83;;;25.20;96.10;;;;;;5070292;28;20667;-60
2021/09/02 06:55:19;;;;;;;17.55;15.85;;;24.80;97.20;;;;;;5068935;28;20404;-59
2021/09/02 06:57:44;;;;;;;19.20;17.45;;;26.00;95.20;;;;;;5069063;28;20375;-54
2021/09/02 07:00:11;;;;;;;15.35;13.55;;;27.30;92.70;;;;;;5068067;28;20380;-55
2021/09/02 07:02:37;;;;;;;12.27;8.00;;;27.30;91.10;;;;;;5068785;28;20836;-55
2021/09/02 07:05:05;;;;;;;12.63;8.57;;;26.80;90.90;;;;;;5069128;28;20388;-54
2021/09/02 07:07:30;;;;;;;11.50;7.97;;;26.40;92.60;;;;;;5069509;28;20379;-55
2021/09/02 07:09:56;;;;;;;13.05;8.23;;;26.40;91.00;;;;;;5069670;28;20380;-59
2021/09/02 07:12:22;;;;;;;11.95;7.57;;;27.20;92.30;;;;;;5068938;28;20886;-59
2021/09/02 07:14:48;;;;;;;11.50;8.03;;;26.60;90.80;;;;;;5069206;28;20372;-59
2021/09/02 07:17:14;;;;;;;11.10;7.40;;;26.50;91.20;;;;;;5068120;28;20494;-58
2021/09/02 07:19:39;;;;;;;11.68;7.90;;;27.40;89.00;;;;;;5068925;28;20388;-60
2021/09/02 07:22:05;;;;;;;12.13;7.53;;;27.90;84.20;;;;;;5068262;28;20434;-59
2021/09/02 07:24:31;;;;;;;11.63;7.90;;;28.70;81.10;;;;;;5070078;28;20368;-60
2021/09/02 07:26:57;;;;;;;10.73;7.77;;;29.30;77.60;;;;;;5069509;28;20424;-60
2021/09/02 07:29:22;;;;;;;11.30;8.00;;;29.30;76.90;;;;;;5068674;28;20411;-61
2021/09/02 07:31:48;;;;;;;11.63;8.10;;;30.00;72.40;;;;;;5069043;28;20416;-60
2021/09/02 07:34:14;;;;;;;11.35;8.05;;;29.40;73.40;;;;;;5068266;28;20753;-60
2021/09/02 07:36:40;;;;;;;13.87;9.60;;;28.20;75.40;;;;;;5068598;28;20450;-60
2021/09/02 07:39:06;;;;;;;13.18;9.10;;;27.50;79.30;;;;;;5068512;28;20372;-60
2021/09/02 07:41:33;;;;;;;12.40;8.90;;;27.80;77.70;;;;;;5069257;28;20525;-60
2021/09/02 07:43:58;;;;;;;13.70;8.90;;;27.80;79.30;;;;;;5068691;28;20455;-60
2021/09/02 07:46:24;;;;;;;12.20;8.80;;;27.60;81.10;;;;;;5068516;28;20396;-60
2021/09/02 07:48:50;;;;;;;11.95;8.82;;;28.00;78.70;;;;;;5068963;28;21039;-60
2021/09/02 07:51:17;;;;;;;12.70;8.70;;;27.90;78.90;;;;;;5068364;28;20392;-60
2021/09/02 07:53:43;;;;;;;12.20;8.50;;;28.50;77.20;;;;;;5069338;28;20379;-60
2021/09/02 07:56:09;;;;;;;15.05;8.07;;;28.60;73.60;;;;;;5067525;28;20379;-60
2021/09/02 07:58:35;;;;;;;11.32;7.72;;;29.00;73.20;;;;;;5068821;28;20380;-60
2021/09/02 08:01:01;;;;;;;11.70;8.45;;;28.60;75.20;;;;;;5067862;28;20437;-60
2021/09/02 08:03:27;;;;;;;11.90;8.43;;;27.60;72.60;;;;;;5067178;28;20404;-60
2021/09/02 08:05:53;;;;;;;13.52;8.10;;;28.70;74.50;;;;;;5068695;28;20376;-60
2021/09/02 08:08:18;;;;;;;11.35;7.78;;;29.80;72.40;;;;;;5067963;28;20416;-60
2021/09/02 08:10:46;;;;;;;11.10;8.60;;;29.50;72.70;;;;;;5068278;28;20411;-60
2021/09/02 08:13:12;;;;;;;12.13;8.13;;;29.90;69.60;;;;;;5068070;28;20899;-61
2021/09/02 08:15:39;;;;;;;14.60;8.70;;;28.90;71.90;;;;;;5068509;28;20768;-60
2021/09/02 08:18:05;;;;;;;12.35;9.18;;;28.90;73.20;;;;;;5067818;28;20824;-60
2021/09/02 08:20:32;;;;;;;12.60;8.50;;;29.80;69.80;;;;;;5068715;28;20931;-60
2021/09/02 08:22:59;;;;;;;11.77;8.00;;;30.40;67.60;;;;;;5068367;28;20542;-60
2021/09/02 08:25:25;;;;;;;11.07;7.28;;;30.80;65.20;;;;;;5068262;28;20372;-61
2021/09/02 08:27:51;;;;;;;13.40;7.90;;;30.80;64.80;;;;;;5068366;28;20930;-61
2021/09/02 08:30:19;;;;;;;11.80;7.23;;;30.50;64.90;;;;;;5067752;28;20761;-60
2021/09/02 08:32:48;;;;;;;16.30;8.30;;;30.50;65.30;;;;;;5069890;28;20811;-60
2021/09/02 08:35:29;;;;;;;12.07;8.45;;;30.60;66.10;;;;;;5071234;28;20463;-61
2021/09/02 08:38:00;;;;;;;12.15;8.75;;;31.00;63.40;;;;;;5071619;28;20368;-61
2021/09/02 08:40:30;;;;;;;11.65;7.95;;;30.80;65.30;;;;;;5071708;28;20386;-60
2021/09/02 08:42:57;;;;;;;11.50;8.40;;;30.90;63.40;;;;;;5071926;28;20399;-60
2021/09/02 08:45:24;;;;;;;13.82;8.15;;;31.40;62.50;;;;;;5071367;28;20375;-60
2021/09/02 08:47:50;;;;;;;12.05;8.13;;;30.90;62.70;;;;;;5071579;28;20780;-61
2021/09/02 08:50:20;;;;;;;10.15;7.63;;;31.50;60.00;;;;;;5071177;28;20376;-60
2021/09/02 08:52:46;;;;;;;12.43;8.30;;;31.80;60.60;;;;;;5071389;28;20937;-61
2021/09/02 08:55:12;;;;;;;11.48;7.30;;;31.10;60.60;;;;;;5071075;28;20432;-61
2021/09/02 08:57:47;;;;;;;12.65;7.72;;;31.10;61.20;;;;;;5071527;28;20406;-61
2021/09/02 09:00:13;;;;;;;12.65;7.47;;;31.70;60.60;;;;;;5071034;28;20389;-60
2021/09/02 09:02:42;;;;;;;10.17;6.87;;;32.10;58.70;;;;;;5071091;28;20415;-61
2021/09/02 09:05:13;;;;;;;12.50;6.90;;;32.70;57.30;;;;;;5070297;28;20813;-60
2021/09/02 09:07:40;;;;;;;11.68;7.90;;;32.80;58.20;;;;;;5071715;28;20391;-61
2021/09/02 09:10:11;;;;;;;14.32;8.13;;;33.30;56.70;;;;;;5070411;28;20435;-61
2021/09/02 09:12:50;;;;;;;10.52;7.25;;;33.20;56.60;;;;;;5071430;28;20494;-61
2021/09/02 09:15:19;;;;;;;11.53;7.00;;;33.10;56.70;;;;;;5070416;28;20379;-60
2021/09/02 09:17:53;;;;;;;9.77;6.40;;;33.90;55.80;;;;;;5070946;28;20908;-61
2021/09/02 09:20:22;;;;;;;9.90;6.53;;;33.70;54.80;;;;;;5070428;28;20435;-60
2021/09/02 09:22:54;;;;;;;11.68;7.40;;;34.30;52.80;;;;;;5071057;28;20888;-60
2021/09/02 09:25:19;;;;;;;10.00;6.68;;;34.30;51.90;;;;;;5070180;28;20391;-61
2021/09/02 09:27:54;;;;;;;10.40;6.45;;;34.30;52.60;;;;;;5052888;28;20470;-60
2021/09/02 09:30:28;;;;;;;11.40;7.30;;;35.00;52.20;;;;;;5070282;28;20420;-60
2021/09/02 09:32:55;;;;;;;11.57;7.80;;;35.80;51.30;;;;;;5071022;28;20391;-62
2021/09/02 09:35:26;;;;;;;12.80;7.40;;;35.80;52.30;;;;;;5070040;28;20844;-60
2021/09/02 09:38:22;;;;;;;15.23;7.78;;;35.90;50.70;;;;;;5071171;28;20371;-60
2021/09/02 09:40:51;;;;;;;10.32;7.00;;;35.70;50.50;;;;;;5066186;28;20446;-60
2021/09/02 09:43:24;;;;;;;10.77;7.20;;;35.30;48.90;;;;;;5069427;28;20406;-60
2021/09/02 09:45:54;;;;;;;11.50;8.30;;;35.10;48.70;;;;;;5070577;28;20892;-61
2021/09/02 09:48:20;;;;;;;17.52;16.02;;;33.90;50.70;;;;;;5069863;28;20450;-60
2021/09/02 09:50:47;;;;;;;13.93;11.90;;;33.80;50.90;;;;;;5071003;28;20450;-61
2021/09/02 09:53:25;;;;;;;13.70;12.40;;;33.10;53.20;;;;;;5069851;28;20380;-60
2021/09/02 09:55:53;;;;;;;14.40;12.43;;;33.00;51.80;;;;;;5070579;28;20380;-59
2021/09/02 09:58:21;;;;;;;13.95;12.50;;;32.10;52.90;;;;;;5069755;28;20541;-60
2021/09/02 10:00:48;;;;;;;15.60;12.45;;;32.00;55.50;;;;;;5070654;28;20829;-59
2021/09/02 10:03:15;;;;;;;13.20;11.85;;;32.50;53.80;;;;;;5069690;28;20853;-59
2021/09/02 10:05:41;;;;;;;13.43;12.10;;;32.10;53.30;;;;;;5070723;28;20453;-59
2021/09/02 10:08:07;;;;;;;12.35;11.15;;;32.00;54.30;;;;;;5069778;28;20376;-59
2021/09/02 10:10:33;;;;;;;12.45;11.25;;;32.40;54.30;;;;;;5069984;28;20379;-60
2021/09/02 10:13:00;;;;;;;14.57;11.15;;;32.60;51.70;;;;;;5070028;28;20402;-60
2021/09/02 10:15:26;;;;;;;13.57;12.18;;;32.10;54.30;;;;;;5069652;28;20394;-60
2021/09/02 10:17:52;;;;;;;12.65;10.90;;;31.70;54.40;;;;;;5069684;28;20407;-59
2021/09/02 10:20:22;;;;;;;12.80;11.30;;;31.50;55.70;;;;;;5069415;28;20387;-60
2021/09/02 10:22:49;;;;;;;13.80;11.80;;;31.00;56.20;;;;;;5070011;28;20450;-60
2021/09/02 10:25:31;;;;;;;13.85;11.88;;;30.50;56.70;;;;;;5069149;28;20379;-59
2021/09/02 10:28:02;;;;;;;12.88;11.48;;;31.10;56.30;;;;;;5070014;28;20380;-60
2021/09/02 10:30:29;;;;;;;14.87;12.30;;;31.40;56.40;;;;;;5069459;28;20458;-60
2021/09/02 10:32:57;;;;;;;12.40;11.10;;;31.20;57.70;;;;;;5069889;28;20392;-59
2021/09/02 10:35:25;;;;;;;12.57;11.38;;;30.90;56.30;;;;;;5069241;28;20447;-62
2021/09/02 10:37:52;;;;;;;12.60;10.27;;;31.10;55.00;;;;;;5069580;28;20379;-61
2021/09/02 10:40:18;;;;;;;13.27;10.07;;;30.80;55.90;;;;;;5068809;28;20799;-59
2021/09/02 10:42:57;;;;;;;13.83;11.70;;;29.60;58.30;;;;;;5069795;28;20411;-59
2021/09/02 10:45:25;;;;;;;16.35;14.95;;;28.90;60.80;;;;;;5068490;28;21069;-59
2021/09/02 10:48:14;;;;;;;13.10;6.90;;;28.20;61.70;;;;;;5069368;28;20609;-59
2021/09/02 10:50:42;;;;;;;12.05;7.07;;;27.90;63.70;;;;;;5069137;28;20445;-59
2021/09/02 10:53:10;;;;;;;11.00;6.53;;;27.70;62.70;;;;;;5068526;28;20384;-59
2021/09/02 10:55:39;;;;;;;10.97;7.00;;;27.50;61.90;;;;;;5069047;28;20462;-60
2021/09/02 10:58:06;;;;;;;9.93;6.00;;;27.20;64.20;;;;;;5068236;28;20848;-62
2021/09/02 11:00:39;;;;;;;10.60;6.30;;;27.10;64.30;;;;;;5069471;28;20383;-59
2021/09/02 11:03:25;;;;;;;13.20;6.22;;;27.60;64.30;;;;;;5068634;28;20403;-59
2021/09/02 11:05:57;;;;;;;10.75;6.40;;;27.90;62.50;;;;;;5068735;28;20445;-59
2021/09/02 11:08:31;;;;;;;11.05;6.55;;;28.30;61.70;;;;;;5069034;28;20479;-58
2021/09/02 11:11:16;;;;;;;13.53;12.10;;;28.30;62.70;;;;;;5068657;28;20433;-57
2021/09/02 11:13:44;;;;;;;11.13;6.10;;;27.90;62.70;;;;;;5068583;28;20461;-59
2021/09/02 11:16:15;;;;;;;9.45;5.82;;;27.30;63.50;;;;;;5058327;28;20820;-60
2021/09/02 11:18:45;;;;;;;11.35;6.55;;;27.60;66.50;;;;;;5051827;28;20856;-58
2021/09/02 11:21:25;;;;;;;11.30;7.85;;;27.50;62.60;;;;;;5048721;28;20388;-57
2021/09/02 11:23:59;;;;;;;12.45;6.55;;;27.50;63.90;;;;;;5063327;28;20403;-59
2021/09/02 11:26:43;;;;;;;9.10;6.23;;;27.10;63.80;;;;;;5067659;28;20383;-60
2021/09/02 11:29:20;;;;;;;10.50;6.43;;;26.50;63.20;;;;;;5064700;28;20393;-61
2021/09/02 11:32:07;;;;;;;11.32;6.13;;;26.00;66.50;;;;;;5049369;28;20935;-60
2021/09/02 11:34:33;;;;;;;11.85;7.50;;;25.80;67.70;;;;;;5063464;28;20426;-59
2021/09/02 11:36:59;;;;;;;10.23;5.80;;;25.80;69.80;;;;;;5068864;28;20414;-60
2021/09/02 11:39:50;;;;;;;10.52;5.80;;;25.80;66.70;;;;;;5067260;28;20380;-60
2021/09/02 11:42:16;;;;;;;13.23;6.40;;;25.60;69.80;;;;;;5067655;28;20456;-60
2021/09/02 11:44:47;;;;;;;10.80;5.67;;;25.60;66.90;;;;;;5065189;28;20389;-60
2021/09/02 11:47:12;;;;;;;11.93;6.03;;;25.70;69.40;;;;;;5048394;28;20389;-60
2021/09/02 11:49:41;;;;;;;11.88;6.38;;;25.70;69.50;;;;;;5052596;28;21176;-60
2021/09/02 11:52:07;;;;;;;10.70;6.10;;;25.80;69.70;;;;;;5050803;28;20382;-60
2021/09/02 11:54:35;;;;;;;10.93;6.07;;;25.80;70.50;;;;;;5048815;28;20373;-60
2021/09/02 11:57:04;;;;;;;10.60;6.50;;;25.70;67.00;;;;;;5049176;28;20374;-60
2021/09/02 11:59:30;;;;;;;9.52;5.80;;;25.60;66.80;;;;;;5055383;28;20485;-60
2021/09/02 12:01:56;;;;;;;11.05;6.25;;;25.60;67.70;;;;;;5049075;28;20476;-59
2021/09/02 12:04:24;;;;;;;9.82;5.60;;;25.70;66.80;;;;;;5048174;28;20949;-60
2021/09/02 12:06:58;;;;;;;9.70;5.60;;;25.90;68.70;;;;;;5053606;28;20393;-60
2021/09/02 12:09:29;;;;;;;10.40;6.40;;;26.10;68.30;;;;;;5063434;28;21058;-61
2021/09/02 12:11:55;;;;;;;10.82;6.30;;;26.20;67.70;;;;;;5059048;28;20382;-60
2021/09/02 12:14:23;;;;;;;11.73;6.30;;;26.20;71.50;;;;;;5053487;28;20457;-61
2021/09/02 12:17:18;;;;;;;11.20;6.40;;;26.00;67.10;;;;;;5058615;28;20858;-60
2021/09/02 12:19:59;;;;;;;9.02;5.90;;;26.00;69.30;;;;;;5057921;28;20487;-59
2021/09/02 12:22:37;;;;;;;9.67;5.90;;;25.90;70.70;;;;;;5052241;28;20388;-59
2021/09/02 12:25:21;;;;;;;10.48;6.45;;;26.00;68.30;;;;;;5052900;28;20378;-59
2021/09/02 12:27:52;;;;;;;13.05;6.53;;;26.10;69.00;;;;;;5065370;28;20372;-59
2021/09/02 12:30:42;;;;;;;9.82;6.00;;;26.10;70.80;;;;;;5051363;28;20863;-59
2021/09/02 12:33:09;;;;;;;10.00;5.80;;;25.60;70.00;;;;;;5051715;28;20913;-59